Terminal Aerodrome Forecast
Issued by NWS Shreveport, LA

Home | Current Version | Previous Version | Text Only | Print | Product List | Glossary On
Versions: 1 2 3 4 5 6 7 8 9 10 11 12 13 14 15 16
210
FTUS44 KSHV 311730
TAFGGG
TAF
KGGG 311730Z 3118/0118 18007KT P6SM SCT040 SCT250
     FM312000 VRB06KT P6SM VCTS SCT045CB BKN250
      TEMPO 3120/3124 3SM -TSRA BR BKN040CB
     FM010600 VRB03KT P6SM SCT040 BKN180 BKN250
      TEMPO 0110/0113 5SM BR BKN010
     FM011300 15004KT P6SM SCT010 BKN140 BKN250
     FM011600 16007KT P6SM VCTS BKN035CB OVC140=

USA.gov is the U.S. government's official web portal to all federal, state and local government web resources and services.